createdAt,value
2022-08-04T00:01:07.850Z,26.94
2022-08-04T00:03:43.915Z,26.93
2022-08-04T00:06:15.359Z,26.93
2022-08-04T00:08:46.333Z,26.92
2022-08-04T00:11:16.540Z,26.90
2022-08-04T00:14:03.834Z,26.85
2022-08-04T00:16:37.927Z,26.84
2022-08-04T00:19:08.506Z,26.83
2022-08-04T00:21:37.927Z,26.78
2022-08-04T00:24:12.182Z,26.77
2022-08-04T00:26:41.315Z,26.78
2022-08-04T00:29:10.622Z,26.77
2022-08-04T00:31:54.773Z,26.75
2022-08-04T00:34:26.517Z,26.73
2022-08-04T00:36:54.890Z,26.71
2022-08-04T00:39:23.038Z,26.70
2022-08-04T00:42:00.115Z,26.71
2022-08-04T00:44:32.338Z,26.71
2022-08-04T00:47:05.813Z,26.70
2022-08-04T00:49:44.868Z,26.68
2022-08-04T00:52:31.547Z,26.64
2022-08-04T00:55:09.317Z,26.60
2022-08-04T00:57:44.452Z,26.55
2022-08-04T01:00:14.733Z,26.55
2022-08-04T01:02:51.435Z,26.59
2022-08-04T01:05:22.917Z,26.63
2022-08-04T01:08:12.954Z,26.62
2022-08-04T01:10:46.911Z,26.60
2022-08-04T01:13:49.400Z,26.56
2022-08-04T01:16:19.276Z,26.56
2022-08-04T01:18:51.444Z,26.55
2022-08-04T01:21:46.495Z,26.55
2022-08-04T01:24:30.992Z,26.53
2022-08-04T01:27:02.257Z,26.44
2022-08-04T01:29:46.703Z,26.41
2022-08-04T01:32:21.026Z,26.43
2022-08-04T01:35:03.916Z,26.39
2022-08-04T01:37:49.802Z,26.41
2022-08-04T01:40:17.835Z,26.37
2022-08-04T01:42:46.597Z,26.36
2022-08-04T01:45:16.299Z,26.35
2022-08-04T01:47:45.037Z,26.35
2022-08-04T01:50:14.039Z,26.32
2022-08-04T01:52:44.635Z,26.30
2022-08-04T01:55:17.962Z,26.29
2022-08-04T01:57:47.934Z,26.29
2022-08-04T02:00:18.528Z,26.31
2022-08-04T02:02:46.677Z,26.29
2022-08-04T02:05:16.996Z,26.28
2022-08-04T02:07:51.588Z,26.23
2022-08-04T02:10:24.842Z,26.17
2022-08-04T02:12:57.347Z,26.10
2022-08-04T02:15:29.261Z,26.07
2022-08-04T02:18:02.394Z,26.02
2022-08-04T02:20:31.819Z,25.98
2022-08-04T02:23:00.415Z,25.95
2022-08-04T02:25:29.247Z,25.95
2022-08-04T02:28:12.898Z,25.95
2022-08-04T02:30:47.951Z,25.96
2022-08-04T02:33:18.403Z,25.94
2022-08-04T02:35:46.390Z,25.93
2022-08-04T02:38:25.796Z,25.88
2022-08-04T02:40:54.790Z,25.87
2022-08-04T02:43:51.836Z,25.85
2022-08-04T02:46:17.652Z,25.90
2022-08-04T02:48:46.999Z,25.91
2022-08-04T02:51:16.305Z,25.90
2022-08-04T02:53:44.752Z,25.89
2022-08-04T02:56:12.713Z,25.86
2022-08-04T02:58:40.736Z,25.86
2022-08-04T03:01:08.772Z,25.88
2022-08-04T03:03:40.582Z,25.88
2022-08-04T03:06:30.012Z,25.87
2022-08-04T03:09:24.211Z,25.85
2022-08-04T03:12:07.032Z,25.83
2022-08-04T03:15:13.810Z,25.80
2022-08-04T03:18:00.809Z,25.74
2022-08-04T03:20:59.580Z,25.74
2022-08-04T03:24:02.865Z,25.71
2022-08-04T03:26:59.291Z,25.69
2022-08-04T03:30:00.581Z,25.65
2022-08-04T03:32:55.480Z,25.63
2022-08-04T03:35:40.473Z,25.61
2022-08-04T03:38:22.127Z,25.58
2022-08-04T03:41:05.282Z,25.58
2022-08-04T04:03:12.365Z,25.27
2022-08-04T04:06:21.942Z,25.25
2022-08-04T04:09:20.642Z,25.27
2022-08-04T04:12:08.894Z,25.27
2022-08-04T04:14:50.895Z,25.26
2022-08-04T04:17:34.715Z,25.26
2022-08-04T04:20:26.691Z,25.19
2022-08-04T04:23:01.697Z,25.19
2022-08-04T04:25:40.960Z,25.20
2022-08-04T04:28:46.974Z,25.21
2022-08-04T04:31:36.340Z,25.23
2022-08-04T04:34:11.832Z,25.25
2022-08-04T04:36:48.293Z,25.26
2022-08-04T04:39:21.658Z,25.19
2022-08-04T04:42:09.118Z,25.11
2022-08-04T04:44:57.696Z,25.01
2022-08-04T04:47:43.278Z,24.96
2022-08-04T04:50:32.553Z,24.97
2022-08-04T04:53:08.382Z,25.12
2022-08-04T04:55:47.700Z,25.20
2022-08-04T04:58:21.298Z,25.27
2022-08-04T05:01:06.034Z,25.32
2022-08-04T05:04:03.698Z,25.39
2022-08-04T05:06:58.324Z,25.40
2022-08-04T05:09:32.614Z,25.40
2022-08-04T05:14:31.195Z,25.40
2022-08-04T05:15:13.860Z,25.49
2022-08-04T05:17:44.230Z,25.52
2022-08-04T05:20:15.788Z,25.51
2022-08-04T05:22:49.057Z,25.53
2022-08-04T05:25:20.531Z,25.51
2022-08-04T05:27:52.110Z,25.28
2022-08-04T05:30:21.480Z,25.41
2022-08-04T05:32:54.700Z,25.46
2022-08-04T05:35:52.933Z,25.44
2022-08-04T05:38:23.389Z,25.48
2022-08-04T05:40:52.450Z,25.29
2022-08-04T05:43:23.917Z,25.32
2022-08-04T05:45:53.261Z,25.32
2022-08-04T05:48:22.424Z,25.22
2022-08-04T05:50:51.713Z,25.27
2022-08-04T05:53:22.512Z,25.34
2022-08-04T05:55:59.658Z,25.39
2022-08-04T05:58:30.222Z,25.51
2022-08-04T06:00:59.666Z,25.58
2022-08-04T06:03:29.396Z,25.58
2022-08-04T06:05:57.947Z,25.48
2022-08-04T06:08:28.420Z,25.60
2022-08-04T06:10:58.196Z,25.65
2022-08-04T06:13:49.325Z,25.64
2022-08-04T06:16:30.311Z,25.76
2022-08-04T06:19:59.652Z,25.82
2022-08-04T06:21:51.106Z,25.87
2022-08-04T06:24:21.772Z,25.94
2022-08-04T06:26:50.515Z,26.02
2022-08-04T06:29:25.515Z,26.05
2022-08-04T06:32:29.490Z,26.12
2022-08-04T06:35:03.635Z,26.17
2022-08-04T06:37:42.032Z,26.21
2022-08-04T06:40:30.847Z,26.25
2022-08-04T06:43:03.048Z,26.28
2022-08-04T06:45:34.540Z,26.32
2022-08-04T06:48:04.863Z,26.34
2022-08-04T06:51:30.525Z,26.39
2022-08-04T06:53:28.334Z,26.43
2022-08-04T06:55:58.953Z,26.47
2022-08-04T06:58:27.970Z,26.49
2022-08-04T07:01:02.395Z,26.52
2022-08-04T07:03:32.112Z,26.55
2022-08-04T07:06:06.168Z,26.59
2022-08-04T07:08:37.706Z,26.61
2022-08-04T07:11:08.123Z,26.64
2022-08-04T07:13:36.228Z,26.67
2022-08-04T07:16:06.220Z,26.68
2022-08-04T07:18:35.449Z,26.71
2022-08-04T07:21:06.647Z,26.72
2022-08-04T07:23:36.299Z,26.74
2022-08-04T07:26:12.315Z,26.77
2022-08-04T07:28:43.587Z,26.80
2022-08-04T07:31:34.685Z,26.82
2022-08-04T07:34:21.376Z,26.85
2022-08-04T07:36:55.200Z,26.86
2022-08-04T07:39:28.290Z,26.87
2022-08-04T07:42:01.360Z,26.88
2022-08-04T07:44:33.274Z,26.89
2022-08-04T07:47:03.458Z,26.91
2022-08-04T07:49:55.665Z,26.93
2022-08-04T07:52:22.388Z,26.93
2022-08-04T07:54:51.740Z,26.95
2022-08-04T07:57:40.553Z,26.95
2022-08-04T08:00:14.630Z,26.97
2022-08-04T08:02:43.735Z,27.01
2022-08-04T08:05:14.818Z,27.03
2022-08-04T08:07:50.422Z,27.04
2022-08-04T08:10:23.790Z,27.06
2022-08-04T08:12:53.329Z,27.08
2022-08-04T08:15:23.271Z,27.09
2022-08-04T08:17:57.895Z,27.11
2022-08-04T08:20:31.452Z,27.13
2022-08-04T08:23:01.002Z,27.13
2022-08-04T08:25:31.488Z,27.13
2022-08-04T08:27:59.764Z,27.14
2022-08-04T08:30:31.643Z,27.15
2022-08-04T08:33:03.762Z,27.15
2022-08-04T08:35:53.392Z,27.14
2022-08-04T08:38:28.846Z,27.14
2022-08-04T08:41:00.234Z,27.14
2022-08-04T08:44:05.152Z,27.16
2022-08-04T08:46:49.657Z,27.22
2022-08-04T08:50:03.097Z,27.25
2022-08-04T08:52:56.616Z,27.25
2022-08-04T08:55:47.657Z,27.27
2022-08-04T08:58:36.429Z,27.28
2022-08-04T09:01:11.280Z,27.29
2022-08-04T09:03:52.593Z,27.30
2022-08-04T09:06:39.352Z,27.32
2022-08-04T09:09:41.143Z,27.34
2022-08-04T09:12:14.216Z,27.35
2022-08-04T09:14:46.999Z,27.36
2022-08-04T09:17:22.944Z,27.37
2022-08-04T09:19:57.482Z,27.38
2022-08-04T09:22:30.000Z,27.42
2022-08-04T09:25:01.721Z,27.43
2022-08-04T09:27:33.770Z,27.44
2022-08-04T09:30:04.632Z,27.45
2022-08-04T09:32:41.436Z,27.47
2022-08-04T09:35:20.263Z,27.47
2022-08-04T09:37:53.470Z,27.49
2022-08-04T09:40:31.656Z,27.50
2022-08-04T09:43:19.898Z,27.51
2022-08-04T09:45:54.376Z,27.53
2022-08-04T09:48:29.260Z,27.53
2022-08-04T09:51:12.777Z,27.53
2022-08-04T09:53:47.364Z,27.55
2022-08-04T09:56:20.912Z,27.57
2022-08-04T09:58:55.060Z,27.57
2022-08-04T10:01:25.944Z,27.58
2022-08-04T10:03:57.640Z,27.59
2022-08-04T10:06:50.155Z,27.61
2022-08-04T10:09:29.732Z,27.59
2022-08-04T10:12:06.928Z,27.60
2022-08-04T10:14:46.733Z,27.61
2022-08-04T10:17:27.513Z,27.62
2022-08-04T10:20:01.590Z,27.61
2022-08-04T10:22:44.683Z,27.63
2022-08-04T10:26:02.583Z,27.64
2022-08-04T10:28:14.994Z,27.66
2022-08-04T10:30:47.629Z,27.71
2022-08-04T10:33:22.488Z,27.73
2022-08-04T10:35:51.912Z,27.74
2022-08-04T10:38:27.006Z,27.75
2022-08-04T10:40:59.909Z,27.77
2022-08-04T10:43:39.883Z,27.80
2022-08-04T10:46:10.815Z,27.83
2022-08-04T10:48:45.604Z,27.89
2022-08-04T10:51:22.821Z,27.92
2022-08-04T10:53:57.053Z,27.97
2022-08-04T10:56:31.461Z,28.02
2022-08-04T10:59:04.244Z,28.05
2022-08-04T11:02:02.894Z,28.10
2022-08-04T11:04:28.028Z,28.11
2022-08-04T11:06:57.611Z,28.13
2022-08-04T11:09:28.226Z,28.12
2022-08-04T11:12:01.679Z,28.11
2022-08-04T11:14:34.759Z,28.10
2022-08-04T11:17:06.505Z,28.12
2022-08-04T11:19:44.976Z,28.12
2022-08-04T11:22:22.914Z,28.12
2022-08-04T11:24:55.122Z,28.11
2022-08-04T11:27:30.815Z,28.13
2022-08-04T11:30:04.914Z,28.15
2022-08-04T11:32:39.761Z,28.15
2022-08-04T11:35:11.266Z,28.12
2022-08-04T11:37:44.497Z,28.15
2022-08-04T11:40:17.244Z,28.15
2022-08-04T11:42:54.012Z,28.17
2022-08-04T11:45:26.341Z,28.19
2022-08-04T11:48:00.827Z,28.22
2022-08-04T11:50:31.372Z,28.22
2022-08-04T11:53:00.789Z,28.23
2022-08-04T11:55:31.740Z,28.22
2022-08-04T11:58:01.001Z,28.23
2022-08-04T12:00:31.459Z,28.25
2022-08-04T12:03:26.592Z,28.29
2022-08-04T12:06:04.747Z,28.31
2022-08-04T12:08:51.060Z,28.30
2022-08-04T12:11:26.004Z,28.30
2022-08-04T12:14:04.316Z,28.30
2022-08-04T12:16:37.609Z,28.30
2022-08-04T12:19:11.604Z,28.30
2022-08-04T12:21:53.089Z,28.29
2022-08-04T12:24:27.513Z,28.31
2022-08-04T12:26:59.707Z,28.33
2022-08-04T12:29:29.440Z,28.34
2022-08-04T12:32:01.833Z,28.33
2022-08-04T12:34:36.195Z,28.36
2022-08-04T12:37:08.145Z,28.37
2022-08-04T12:39:39.616Z,28.38
2022-08-04T12:42:33.834Z,28.39
2022-08-04T12:45:05.398Z,28.41
2022-08-04T12:47:34.577Z,28.41
2022-08-04T12:50:05.158Z,28.41
2022-08-04T12:53:01.741Z,28.41
2022-08-04T12:55:27.380Z,28.43
2022-08-04T12:57:58.523Z,28.45
2022-08-04T13:00:33.150Z,28.46
2022-08-04T13:03:09.676Z,28.47
2022-08-04T13:05:41.890Z,28.47
2022-08-04T13:08:12.096Z,28.47
2022-08-04T13:10:42.967Z,28.47
2022-08-04T13:13:17.576Z,28.48
2022-08-04T13:15:56.415Z,28.49
2022-08-04T13:18:30.355Z,28.50
2022-08-04T13:21:20.065Z,28.51
2022-08-04T13:24:19.723Z,28.51
2022-08-04T13:26:54.753Z,28.54
2022-08-04T13:29:57.961Z,28.55
2022-08-04T13:35:22.728Z,28.57
2022-08-04T13:37:51.983Z,28.57
2022-08-04T13:40:23.138Z,28.57
2022-08-04T13:42:53.288Z,28.56
2022-08-04T13:45:24.278Z,28.56
2022-08-04T13:48:25.253Z,28.56
2022-08-04T13:50:54.049Z,28.60
2022-08-04T13:53:25.620Z,28.61
2022-08-04T13:56:00.186Z,28.61
2022-08-04T13:58:32.069Z,28.60
2022-08-04T14:01:04.078Z,28.61
2022-08-04T14:03:53.453Z,28.61
2022-08-04T14:06:25.606Z,28.65
2022-08-04T14:08:56.011Z,28.76
2022-08-04T14:12:10.859Z,28.86
2022-08-04T14:14:24.541Z,28.93
2022-08-04T14:16:58.768Z,29.05
2022-08-04T14:19:35.899Z,29.02
2022-08-04T14:22:05.840Z,28.97
2022-08-04T14:24:37.301Z,28.92
2022-08-04T14:27:06.746Z,28.89
2022-08-04T14:29:41.928Z,28.85
2022-08-04T14:32:14.817Z,28.83
2022-08-04T14:34:46.269Z,28.81
2022-08-04T14:37:20.004Z,28.79
2022-08-04T14:40:08.020Z,28.78
2022-08-04T14:42:42.360Z,28.78
2022-08-04T14:45:12.388Z,28.75
2022-08-04T14:47:52.345Z,28.75
2022-08-04T14:50:21.811Z,28.73
2022-08-04T14:52:51.064Z,28.73
2022-08-04T14:55:21.138Z,28.71
2022-08-04T14:58:34.631Z,28.70
2022-08-04T15:00:39.607Z,28.69
2022-08-04T15:03:09.730Z,28.70
2022-08-04T15:05:59.778Z,28.69
2022-08-04T15:08:29.219Z,28.68
2022-08-04T15:11:02.910Z,28.68
2022-08-04T15:13:32.102Z,28.67
2022-08-04T15:16:06.349Z,28.68
2022-08-04T15:18:39.412Z,28.66
2022-08-04T15:21:09.129Z,28.65
2022-08-04T15:23:39.642Z,28.66
2022-08-04T15:26:11.664Z,28.66
2022-08-04T15:28:42.211Z,28.65
2022-08-04T15:32:03.727Z,28.64
2022-08-04T15:34:02.112Z,28.64
2022-08-04T15:36:36.727Z,28.63
2022-08-04T15:39:11.249Z,28.63
2022-08-04T15:41:46.227Z,28.61
2022-08-04T15:44:37.836Z,28.61
2022-08-04T15:47:13.688Z,28.62
2022-08-04T15:49:44.464Z,28.61
2022-08-04T15:52:15.956Z,28.61
2022-08-04T15:54:52.409Z,28.61
2022-08-04T15:57:56.982Z,28.61
2022-08-04T16:00:26.414Z,28.61
2022-08-04T16:02:55.952Z,28.61
2022-08-04T16:05:39.545Z,28.61
2022-08-04T16:08:17.289Z,28.60
2022-08-04T16:10:48.265Z,28.59
2022-08-04T16:13:17.102Z,28.59
2022-08-04T16:15:46.937Z,28.59
2022-08-04T16:18:26.520Z,28.60
2022-08-04T16:20:58.291Z,28.59
2022-08-04T16:24:05.637Z,28.57
2022-08-04T16:26:54.303Z,28.57
2022-08-04T16:29:35.077Z,28.57
2022-08-04T16:32:17.736Z,28.57
2022-08-04T16:34:54.998Z,28.56
2022-08-04T16:37:26.138Z,28.56
2022-08-04T16:40:35.817Z,28.56
2022-08-04T16:43:07.886Z,28.56
2022-08-04T16:45:47.141Z,28.56
2022-08-04T16:48:16.065Z,28.55
2022-08-04T16:50:50.106Z,28.55
2022-08-04T16:54:03.690Z,28.55
2022-08-04T16:56:11.354Z,28.55
2022-08-04T16:58:43.724Z,28.56
2022-08-04T17:01:32.591Z,28.55
2022-08-04T17:04:06.685Z,28.55
2022-08-04T17:06:37.444Z,28.55
2022-08-04T17:09:10.709Z,28.54
2022-08-04T17:11:39.988Z,28.54
2022-08-04T17:14:09.388Z,28.53
2022-08-04T17:16:39.727Z,28.54
2022-08-04T17:19:20.425Z,28.52
2022-08-04T17:22:04.996Z,28.54
2022-08-04T17:24:35.222Z,28.52
2022-08-04T17:28:19.242Z,28.52
2022-08-04T17:29:53.784Z,28.52
2022-08-04T17:32:23.555Z,28.51
2022-08-04T17:34:55.385Z,28.51
2022-08-04T17:40:18.466Z,28.51
2022-08-04T17:44:04.773Z,28.51
2022-08-04T17:46:31.469Z,28.50
2022-08-04T17:49:09.473Z,28.51
2022-08-04T17:52:01.572Z,28.50
2022-08-04T17:54:38.938Z,28.51
2022-08-04T17:57:22.263Z,28.50
2022-08-04T17:59:57.753Z,28.50
2022-08-04T18:02:33.214Z,28.49
2022-08-04T18:05:06.888Z,28.47
2022-08-04T18:08:39.152Z,28.47
2022-08-04T18:10:51.889Z,28.47
2022-08-04T18:13:25.667Z,28.46
2022-08-04T18:16:02.493Z,28.46
2022-08-04T18:18:30.851Z,28.46
2022-08-04T18:21:03.262Z,28.45
2022-08-04T18:23:33.225Z,28.44
2022-08-04T18:26:03.796Z,28.45
2022-08-04T18:28:34.042Z,28.44
2022-08-04T18:31:02.497Z,28.44
2022-08-04T18:36:35.869Z,28.45
2022-08-04T18:39:12.656Z,28.45
2022-08-04T18:42:01.082Z,28.44
2022-08-04T18:44:32.492Z,28.44
2022-08-04T18:47:19.631Z,28.46
2022-08-04T18:51:01.174Z,28.46
2022-08-04T18:52:36.500Z,28.44
2022-08-04T18:55:57.502Z,28.44
2022-08-04T18:58:07.779Z,28.44
2022-08-04T19:00:45.215Z,28.45
2022-08-04T19:03:16.248Z,28.43
2022-08-04T19:05:49.913Z,28.43
2022-08-04T19:08:34.269Z,28.43
2022-08-04T19:11:16.740Z,28.42
2022-08-04T19:13:54.802Z,28.42
2022-08-04T19:16:28.409Z,28.42
2022-08-04T19:18:56.800Z,28.41
2022-08-04T19:21:59.988Z,28.41
2022-08-04T19:24:31.896Z,28.42
2022-08-04T19:27:06.984Z,28.41
2022-08-04T19:29:37.385Z,28.42
2022-08-04T19:32:15.015Z,28.42
2022-08-04T19:34:46.144Z,28.42
2022-08-04T19:37:57.557Z,28.44
2022-08-04T19:40:05.858Z,28.44
2022-08-04T19:42:34.760Z,28.44
2022-08-04T19:45:02.989Z,28.45
2022-08-04T19:48:17.430Z,28.43
2022-08-04T19:50:20.553Z,28.43
2022-08-04T19:52:52.718Z,28.43
2022-08-04T19:55:22.394Z,28.43
2022-08-04T19:57:51.017Z,28.42
2022-08-04T20:00:33.025Z,28.42
2022-08-04T20:03:04.204Z,28.42
2022-08-04T20:05:53.533Z,28.43
2022-08-04T20:08:24.478Z,28.43
2022-08-04T20:10:54.842Z,28.43
2022-08-04T20:13:25.416Z,28.42
2022-08-04T20:15:59.365Z,28.42
2022-08-04T20:18:35.817Z,28.42
2022-08-04T20:21:19.773Z,28.42
2022-08-04T20:23:52.217Z,28.41
2022-08-04T20:26:20.227Z,28.42
2022-08-04T20:28:51.979Z,28.42
2022-08-04T20:31:20.609Z,28.41
2022-08-04T20:33:54.864Z,28.40
2022-08-04T20:36:23.205Z,28.40
2022-08-04T20:38:52.575Z,28.39
2022-08-04T20:41:21.064Z,28.39
2022-08-04T20:43:49.989Z,28.38
2022-08-04T20:46:28.939Z,28.34
2022-08-04T20:48:58.938Z,28.32
2022-08-04T20:51:31.868Z,28.31
2022-08-04T20:54:01.934Z,28.27
2022-08-04T20:56:31.517Z,28.26
2022-08-04T20:59:00.167Z,28.25
2022-08-04T21:01:29.804Z,28.23
2022-08-04T21:04:27.968Z,28.20
2022-08-04T21:06:57.424Z,28.13
2022-08-04T21:09:26.515Z,28.09
2022-08-04T21:12:08.172Z,28.06
2022-08-04T21:14:38.125Z,28.04
2022-08-04T21:17:08.085Z,28.02
2022-08-04T21:19:38.846Z,27.99
2022-08-04T21:22:14.207Z,27.93
2022-08-04T21:25:00.880Z,27.87
2022-08-04T21:27:30.885Z,27.84
2022-08-04T21:32:59.408Z,27.83
2022-08-04T21:35:37.701Z,27.80
2022-08-04T21:38:16.624Z,27.79
2022-08-04T21:40:53.613Z,27.78
2022-08-04T21:43:23.461Z,27.77
2022-08-04T21:45:56.913Z,27.77
2022-08-04T21:48:34.122Z,27.75
2022-08-04T21:51:56.737Z,27.77
2022-08-04T21:54:08.679Z,27.76
2022-08-04T21:56:38.235Z,27.74
2022-08-04T21:59:14.278Z,27.74
2022-08-04T22:01:52.484Z,27.74
2022-08-04T22:04:24.376Z,27.72
2022-08-04T22:06:55.056Z,27.73
2022-08-04T22:09:25.042Z,27.75
2022-08-04T22:11:58.263Z,27.77
2022-08-04T22:14:34.626Z,27.78
2022-08-04T22:17:02.861Z,27.77
2022-08-04T22:22:25.064Z,27.73
2022-08-04T22:24:58.619Z,27.72
2022-08-04T22:27:47.755Z,27.70
2022-08-04T22:30:24.668Z,27.68
2022-08-04T22:33:02.991Z,27.66
2022-08-04T22:35:43.720Z,27.64
2022-08-04T22:38:26.871Z,27.63
2022-08-04T22:41:02.919Z,27.62
2022-08-04T22:43:34.677Z,27.65
2022-08-04T22:46:07.699Z,27.65
2022-08-04T22:48:38.147Z,27.62
2022-08-04T22:51:08.370Z,27.61
2022-08-04T22:53:41.849Z,27.59
2022-08-04T22:56:37.176Z,27.60
2022-08-04T22:59:11.198Z,27.60
2022-08-04T23:01:59.622Z,27.58
2022-08-04T23:04:29.305Z,27.56
2022-08-04T23:06:58.823Z,27.55
2022-08-04T23:09:50.922Z,27.55
2022-08-04T23:12:27.247Z,27.53
2022-08-04T23:14:58.766Z,27.53
2022-08-04T23:17:28.582Z,27.52
2022-08-04T23:19:59.001Z,27.50
2022-08-04T23:22:37.135Z,27.50
2022-08-04T23:25:16.398Z,27.50
2022-08-04T23:27:50.824Z,27.49
2022-08-04T23:30:24.704Z,27.47
2022-08-04T23:32:59.384Z,27.46
2022-08-04T23:35:28.947Z,27.43
2022-08-04T23:38:00.023Z,27.43
2022-08-04T23:40:50.479Z,27.45
2022-08-04T23:43:19.875Z,27.45
2022-08-04T23:46:07.403Z,27.46
2022-08-04T23:48:39.011Z,27.45
2022-08-04T23:51:14.122Z,27.42
2022-08-04T23:54:01.772Z,27.39
2022-08-04T23:56:34.675Z,27.37
2022-08-04T23:59:04.593Z,27.33
